sensor_id;sensor_type;location;lat;lon;timestamp;temperature;humidity
72380;SHT30;60354;47.798;12.472;2022-10-26T00:02:20;11.62;84.83
72380;SHT30;60354;47.798;12.472;2022-10-26T00:04:46;11.60;85.05
72380;SHT30;60354;47.798;12.472;2022-10-26T00:07:11;11.70;84.47
72380;SHT30;60354;47.798;12.472;2022-10-26T00:09:37;11.73;84.20
72380;SHT30;60354;47.798;12.472;2022-10-26T00:12:02;11.74;84.70
72380;SHT30;60354;47.798;12.472;2022-10-26T00:14:28;11.76;84.17
72380;SHT30;60354;47.798;12.472;2022-10-26T00:16:54;11.77;84.23
72380;SHT30;60354;47.798;12.472;2022-10-26T00:19:19;11.81;84.10
72380;SHT30;60354;47.798;12.472;2022-10-26T00:21:45;11.81;84.12
72380;SHT30;60354;47.798;12.472;2022-10-26T00:24:11;11.86;83.87
72380;SHT30;60354;47.798;12.472;2022-10-26T00:26:37;11.93;83.27
72380;SHT30;60354;47.798;12.472;2022-10-26T00:29:03;11.95;83.62
72380;SHT30;60354;47.798;12.472;2022-10-26T00:31:28;11.97;83.50
72380;SHT30;60354;47.798;12.472;2022-10-26T00:33:55;12.04;82.95
72380;SHT30;60354;47.798;12.472;2022-10-26T00:36:21;12.14;82.32
72380;SHT30;60354;47.798;12.472;2022-10-26T00:38:52;12.20;82.30
72380;SHT30;60354;47.798;12.472;2022-10-26T00:41:21;12.20;82.15
72380;SHT30;60354;47.798;12.472;2022-10-26T00:43:48;12.22;82.05
72380;SHT30;60354;47.798;12.472;2022-10-26T00:46:32;12.24;82.08
72380;SHT30;60354;47.798;12.472;2022-10-26T00:49:15;12.25;82.00
72380;SHT30;60354;47.798;12.472;2022-10-26T00:51:47;12.25;82.01
72380;SHT30;60354;47.798;12.472;2022-10-26T00:54:16;12.29;81.80
72380;SHT30;60354;47.798;12.472;2022-10-26T00:56:44;12.34;81.43
72380;SHT30;60354;47.798;12.472;2022-10-26T00:59:12;12.38;81.76
72380;SHT30;60354;47.798;12.472;2022-10-26T01:01:40;12.34;81.55
72380;SHT30;60354;47.798;12.472;2022-10-26T01:04:07;12.34;81.84
72380;SHT30;60354;47.798;12.472;2022-10-26T01:06:34;12.25;81.81
72380;SHT30;60354;47.798;12.472;2022-10-26T01:09:01;12.28;81.94
72380;SHT30;60354;47.798;12.472;2022-10-26T01:11:27;12.29;81.65
72380;SHT30;60354;47.798;12.472;2022-10-26T01:13:53;12.32;81.45
72380;SHT30;60354;47.798;12.472;2022-10-26T01:22:19;12.34;81.68
72380;SHT30;60354;47.798;12.472;2022-10-26T01:27:28;12.34;81.84
72380;SHT30;60354;47.798;12.472;2022-10-26T01:33:15;12.32;81.64
72380;SHT30;60354;47.798;12.472;2022-10-26T01:41:23;12.34;81.25
72380;SHT30;60354;47.798;12.472;2022-10-26T01:43:55;12.35;81.15
72380;SHT30;60354;47.798;12.472;2022-10-26T01:46:23;12.42;80.77
72380;SHT30;60354;47.798;12.472;2022-10-26T01:48:53;12.45;80.42
72380;SHT30;60354;47.798;12.472;2022-10-26T01:51:20;12.50;80.45
72380;SHT30;60354;47.798;12.472;2022-10-26T01:53:46;12.50;80.35
72380;SHT30;60354;47.798;12.472;2022-10-26T01:56:24;12.53;80.38
72380;SHT30;60354;47.798;12.472;2022-10-26T02:07:00;12.76;78.38
72380;SHT30;60354;47.798;12.472;2022-10-26T02:11:54;12.92;77.43
72380;SHT30;60354;47.798;12.472;2022-10-26T02:14:33;13.02;77.00
72380;SHT30;60354;47.798;12.472;2022-10-26T02:17:07;13.17;76.09
72380;SHT30;60354;47.798;12.472;2022-10-26T02:22:19;13.31;74.90
72380;SHT30;60354;47.798;12.472;2022-10-26T02:24:46;13.40;74.73
72380;SHT30;60354;47.798;12.472;2022-10-26T02:27:21;13.37;74.95
72380;SHT30;60354;47.798;12.472;2022-10-26T02:29:49;13.40;74.85
72380;SHT30;60354;47.798;12.472;2022-10-26T02:32:18;13.33;75.30
72380;SHT30;60354;47.798;12.472;2022-10-26T02:34:46;13.33;75.12
72380;SHT30;60354;47.798;12.472;2022-10-26T02:37:15;13.30;75.85
72380;SHT30;60354;47.798;12.472;2022-10-26T02:39:44;13.23;76.26
72380;SHT30;60354;47.798;12.472;2022-10-26T02:42:12;13.16;76.64
72380;SHT30;60354;47.798;12.472;2022-10-26T02:44:51;13.11;76.51
72380;SHT30;60354;47.798;12.472;2022-10-26T02:47:18;13.06;76.74
72380;SHT30;60354;47.798;12.472;2022-10-26T02:49:44;13.02;77.03
72380;SHT30;60354;47.798;12.472;2022-10-26T02:54:46;13.06;75.92
72380;SHT30;60354;47.798;12.472;2022-10-26T02:57:18;12.99;76.76
72380;SHT30;60354;47.798;12.472;2022-10-26T02:59:46;12.96;76.78
72380;SHT30;60354;47.798;12.472;2022-10-26T03:02:15;12.95;76.87
72380;SHT30;60354;47.798;12.472;2022-10-26T03:04:41;12.90;76.93
72380;SHT30;60354;47.798;12.472;2022-10-26T03:07:06;12.87;76.87
72380;SHT30;60354;47.798;12.472;2022-10-26T03:09:32;12.86;77.15
72380;SHT30;60354;47.798;12.472;2022-10-26T03:11:57;12.82;77.58
72380;SHT30;60354;47.798;12.472;2022-10-26T03:14:23;12.80;77.57
72380;SHT30;60354;47.798;12.472;2022-10-26T03:16:48;12.75;77.79
72380;SHT30;60354;47.798;12.472;2022-10-26T03:19:14;12.73;77.73
72380;SHT30;60354;47.798;12.472;2022-10-26T03:21:39;12.69;78.05
72380;SHT30;60354;47.798;12.472;2022-10-26T03:24:07;12.69;78.03
72380;SHT30;60354;47.798;12.472;2022-10-26T03:26:32;12.63;78.36
72380;SHT30;60354;47.798;12.472;2022-10-26T03:28:58;12.59;78.52
72380;SHT30;60354;47.798;12.472;2022-10-26T03:31:23;12.60;78.98
72380;SHT30;60354;47.798;12.472;2022-10-26T03:33:49;12.63;79.88
72380;SHT30;60354;47.798;12.472;2022-10-26T03:36:14;12.65;78.25
72380;SHT30;60354;47.798;12.472;2022-10-26T03:38:40;12.67;78.89
72380;SHT30;60354;47.798;12.472;2022-10-26T03:41:05;12.76;77.19
72380;SHT30;60354;47.798;12.472;2022-10-26T03:43:31;12.79;77.13
72380;SHT30;60354;47.798;12.472;2022-10-26T03:45:56;12.82;77.05
72380;SHT30;60354;47.798;12.472;2022-10-26T03:48:22;12.92;75.93
72380;SHT30;60354;47.798;12.472;2022-10-26T03:50:47;12.96;75.42
72380;SHT30;60354;47.798;12.472;2022-10-26T03:53:12;13.11;74.84
72380;SHT30;60354;47.798;12.472;2022-10-26T03:55:38;13.20;74.51
72380;SHT30;60354;47.798;12.472;2022-10-26T03:58:04;13.31;74.68
72380;SHT30;60354;47.798;12.472;2022-10-26T04:00:29;13.41;74.21
72380;SHT30;60354;47.798;12.472;2022-10-26T04:02:58;13.50;74.46
72380;SHT30;60354;47.798;12.472;2022-10-26T04:05:25;13.48;75.52
72380;SHT30;60354;47.798;12.472;2022-10-26T04:07:56;13.40;76.42
72380;SHT30;60354;47.798;12.472;2022-10-26T04:10:23;13.31;76.97
72380;SHT30;60354;47.798;12.472;2022-10-26T04:12:48;13.26;77.81
72380;SHT30;60354;47.798;12.472;2022-10-26T04:15:15;13.18;77.74
72380;SHT30;60354;47.798;12.472;2022-10-26T04:17:41;13.11;78.73
72380;SHT30;60354;47.798;12.472;2022-10-26T04:20:07;13.06;78.78
72380;SHT30;60354;47.798;12.472;2022-10-26T04:22:33;13.00;78.81
72380;SHT30;60354;47.798;12.472;2022-10-26T04:24:58;12.89;79.44
72380;SHT30;60354;47.798;12.472;2022-10-26T04:27:24;12.86;79.50
72380;SHT30;60354;47.798;12.472;2022-10-26T04:29:49;12.83;79.77
72380;SHT30;60354;47.798;12.472;2022-10-26T04:32:17;12.77;79.60
72380;SHT30;60354;47.798;12.472;2022-10-26T04:34:42;12.75;79.66
72380;SHT30;60354;47.798;12.472;2022-10-26T04:37:08;12.73;79.57
72380;SHT30;60354;47.798;12.472;2022-10-26T04:39:33;12.76;79.29
72380;SHT30;60354;47.798;12.472;2022-10-26T04:41:59;12.69;79.36
72380;SHT30;60354;47.798;12.472;2022-10-26T04:44:24;12.69;79.35
72380;SHT30;60354;47.798;12.472;2022-10-26T04:46:50;12.75;79.24
72380;SHT30;60354;47.798;12.472;2022-10-26T04:49:29;12.69;78.98
72380;SHT30;60354;47.798;12.472;2022-10-26T04:52:00;12.67;79.24
72380;SHT30;60354;47.798;12.472;2022-10-26T04:54:29;12.65;79.44
72380;SHT30;60354;47.798;12.472;2022-10-26T04:56:54;12.62;79.27
72380;SHT30;60354;47.798;12.472;2022-10-26T04:59:22;12.67;78.71
72380;SHT30;60354;47.798;12.472;2022-10-26T05:01:52;12.67;78.62
72380;SHT30;60354;47.798;12.472;2022-10-26T05:04:20;12.72;78.45
72380;SHT30;60354;47.798;12.472;2022-10-26T05:06:54;12.69;78.61
72380;SHT30;60354;47.798;12.472;2022-10-26T05:09:22;12.70;78.28
72380;SHT30;60354;47.798;12.472;2022-10-26T05:11:48;12.69;78.54
72380;SHT30;60354;47.798;12.472;2022-10-26T05:14:17;12.66;78.70
72380;SHT30;60354;47.798;12.472;2022-10-26T05:16:52;12.66;78.36
72380;SHT30;60354;47.798;12.472;2022-10-26T05:19:20;12.65;78.41
72380;SHT30;60354;47.798;12.472;2022-10-26T05:21:48;12.67;78.08
72380;SHT30;60354;47.798;12.472;2022-10-26T05:24:20;12.75;77.46
72380;SHT30;60354;47.798;12.472;2022-10-26T05:29:35;12.89;76.78
72380;SHT30;60354;47.798;12.472;2022-10-26T05:32:20;12.96;76.51
72380;SHT30;60354;47.798;12.472;2022-10-26T05:34:56;13.00;76.60
72380;SHT30;60354;47.798;12.472;2022-10-26T05:37:42;13.00;76.68
72380;SHT30;60354;47.798;12.472;2022-10-26T05:40:12;12.99;76.67
72380;SHT30;60354;47.798;12.472;2022-10-26T05:43:07;12.99;76.49
72380;SHT30;60354;47.798;12.472;2022-10-26T05:45:45;13.04;76.28
72380;SHT30;60354;47.798;12.472;2022-10-26T05:48:13;13.10;75.75
72380;SHT30;60354;47.798;12.472;2022-10-26T05:50:52;13.14;76.21
72380;SHT30;60354;47.798;12.472;2022-10-26T05:53:23;13.17;76.18
72380;SHT30;60354;47.798;12.472;2022-10-26T05:56:00;13.16;76.16
72380;SHT30;60354;47.798;12.472;2022-10-26T05:58:49;13.20;75.97
72380;SHT30;60354;47.798;12.472;2022-10-26T06:04:44;13.35;77.20
72380;SHT30;60354;47.798;12.472;2022-10-26T06:07:25;13.51;76.05
72380;SHT30;60354;47.798;12.472;2022-10-26T06:09:59;13.47;76.98
72380;SHT30;60354;47.798;12.472;2022-10-26T06:12:35;13.43;76.72
72380;SHT30;60354;47.798;12.472;2022-10-26T06:15:05;13.55;75.26
72380;SHT30;60354;47.798;12.472;2022-10-26T06:26:36;13.50;76.98
72380;SHT30;60354;47.798;12.472;2022-10-26T06:29:31;13.50;76.98
72380;SHT30;60354;47.798;12.472;2022-10-26T06:32:00;13.54;76.99
72380;SHT30;60354;47.798;12.472;2022-10-26T06:34:30;13.59;76.48
72380;SHT30;60354;47.798;12.472;2022-10-26T06:36:57;13.58;75.04
72380;SHT30;60354;47.798;12.472;2022-10-26T06:39:26;13.54;76.15
72380;SHT30;60354;47.798;12.472;2022-10-26T06:41:56;13.50;77.20
72380;SHT30;60354;47.798;12.472;2022-10-26T06:44:23;13.47;78.19
72380;SHT30;60354;47.798;12.472;2022-10-26T06:46:52;13.47;78.81
72380;SHT30;60354;47.798;12.472;2022-10-26T06:54:51;13.35;79.82
72380;SHT30;60354;47.798;12.472;2022-10-26T06:57:23;13.33;79.57
72380;SHT30;60354;47.798;12.472;2022-10-26T07:00:06;13.31;78.89
72380;SHT30;60354;47.798;12.472;2022-10-26T07:02:32;13.24;79.32
72380;SHT30;60354;47.798;12.472;2022-10-26T07:04:58;13.21;79.24
72380;SHT30;60354;47.798;12.472;2022-10-26T07:07:25;13.21;80.20
72380;SHT30;60354;47.798;12.472;2022-10-26T07:09:51;13.21;80.43
72380;SHT30;60354;47.798;12.472;2022-10-26T07:12:17;13.18;81.15
72380;SHT30;60354;47.798;12.472;2022-10-26T07:14:45;13.20;80.43
72380;SHT30;60354;47.798;12.472;2022-10-26T07:17:11;13.33;81.98
72380;SHT30;60354;47.798;12.472;2022-10-26T07:19:39;13.54;81.67
72380;SHT30;60354;47.798;12.472;2022-10-26T07:22:10;13.71;79.79
72380;SHT30;60354;47.798;12.472;2022-10-26T07:24:49;13.79;78.31
72380;SHT30;60354;47.798;12.472;2022-10-26T07:27:25;13.94;79.53
72380;SHT30;60354;47.798;12.472;2022-10-26T07:29:50;13.98;77.46
72380;SHT30;60354;47.798;12.472;2022-10-26T07:32:18;13.95;77.82
72380;SHT30;60354;47.798;12.472;2022-10-26T07:34:44;13.88;77.50
72380;SHT30;60354;47.798;12.472;2022-10-26T07:37:09;13.86;77.04
72380;SHT30;60354;47.798;12.472;2022-10-26T07:39:34;13.75;77.41
72380;SHT30;60354;47.798;12.472;2022-10-26T07:42:00;13.69;77.69
72380;SHT30;60354;47.798;12.472;2022-10-26T07:44:25;13.71;78.01
72380;SHT30;60354;47.798;12.472;2022-10-26T07:46:51;13.72;77.87
72380;SHT30;60354;47.798;12.472;2022-10-26T07:49:16;13.86;77.53
72380;SHT30;60354;47.798;12.472;2022-10-26T07:51:42;14.04;76.56
72380;SHT30;60354;47.798;12.472;2022-10-26T07:54:08;14.17;75.82
72380;SHT30;60354;47.798;12.472;2022-10-26T07:56:33;14.09;76.65
72380;SHT30;60354;47.798;12.472;2022-10-26T07:58:59;14.10;76.17
72380;SHT30;60354;47.798;12.472;2022-10-26T08:01:24;14.19;75.98
72380;SHT30;60354;47.798;12.472;2022-10-26T08:03:51;14.19;76.19
72380;SHT30;60354;47.798;12.472;2022-10-26T08:06:21;14.23;75.75
72380;SHT30;60354;47.798;12.472;2022-10-26T08:08:47;14.25;75.44
72380;SHT30;60354;47.798;12.472;2022-10-26T08:11:13;14.30;74.96
72380;SHT30;60354;47.798;12.472;2022-10-26T08:13:39;14.33;74.89
72380;SHT30;60354;47.798;12.472;2022-10-26T08:16:05;14.41;74.42
72380;SHT30;60354;47.798;12.472;2022-10-26T08:18:31;14.43;74.84
72380;SHT30;60354;47.798;12.472;2022-10-26T08:21:02;14.51;74.82
72380;SHT30;60354;47.798;12.472;2022-10-26T08:23:28;14.64;73.49
72380;SHT30;60354;47.798;12.472;2022-10-26T08:25:57;15.01;72.64
72380;SHT30;60354;47.798;12.472;2022-10-26T08:28:23;15.04;72.78
72380;SHT30;60354;47.798;12.472;2022-10-26T08:30:49;15.07;72.48
72380;SHT30;60354;47.798;12.472;2022-10-26T08:33:14;15.09;72.28
72380;SHT30;60354;47.798;12.472;2022-10-26T08:35:42;15.12;72.13
72380;SHT30;60354;47.798;12.472;2022-10-26T08:38:08;15.12;71.86
72380;SHT30;60354;47.798;12.472;2022-10-26T08:40:40;15.22;71.64
72380;SHT30;60354;47.798;12.472;2022-10-26T08:43:30;15.28;71.13
72380;SHT30;60354;47.798;12.472;2022-10-26T08:46:16;15.28;71.54
72380;SHT30;60354;47.798;12.472;2022-10-26T08:48:47;15.26;71.45
72380;SHT30;60354;47.798;12.472;2022-10-26T08:51:43;15.29;71.54
72380;SHT30;60354;47.798;12.472;2022-10-26T08:54:14;15.35;71.87
72380;SHT30;60354;47.798;12.472;2022-10-26T08:56:49;15.40;71.78
72380;SHT30;60354;47.798;12.472;2022-10-26T08:59:43;15.50;71.80
72380;SHT30;60354;47.798;12.472;2022-10-26T09:02:12;15.66;71.18
72380;SHT30;60354;47.798;12.472;2022-10-26T09:04:38;15.74;70.26
72380;SHT30;60354;47.798;12.472;2022-10-26T09:12:10;16.06;69.90
72380;SHT30;60354;47.798;12.472;2022-10-26T09:25:38;16.13;70.61
72380;SHT30;60354;47.798;12.472;2022-10-26T09:28:04;16.17;69.38
72380;SHT30;60354;47.798;12.472;2022-10-26T09:30:32;16.07;69.05
72380;SHT30;60354;47.798;12.472;2022-10-26T09:33:03;16.04;68.69
72380;SHT30;60354;47.798;12.472;2022-10-26T09:35:47;16.06;68.81
72380;SHT30;60354;47.798;12.472;2022-10-26T09:38:31;16.14;68.27
72380;SHT30;60354;47.798;12.472;2022-10-26T09:41:05;16.27;67.09
72380;SHT30;60354;47.798;12.472;2022-10-26T09:43:56;16.37;66.55
72380;SHT30;60354;47.798;12.472;2022-10-26T09:46:36;16.52;66.07
72380;SHT30;60354;47.798;12.472;2022-10-26T09:49:10;16.59;66.08
72380;SHT30;60354;47.798;12.472;2022-10-26T09:51:38;16.64;65.81
72380;SHT30;60354;47.798;12.472;2022-10-26T09:54:14;16.71;65.94
72380;SHT30;60354;47.798;12.472;2022-10-26T09:56:46;16.71;66.47
72380;SHT30;60354;47.798;12.472;2022-10-26T09:59:14;16.73;66.94
72380;SHT30;60354;47.798;12.472;2022-10-26T10:01:40;16.66;66.87
72380;SHT30;60354;47.798;12.472;2022-10-26T10:06:42;16.69;67.42
72380;SHT30;60354;47.798;12.472;2022-10-26T10:09:15;16.80;68.46
72380;SHT30;60354;47.798;12.472;2022-10-26T10:14:20;16.99;68.15
72380;SHT30;60354;47.798;12.472;2022-10-26T10:16:52;17.22;67.42
72380;SHT30;60354;47.798;12.472;2022-10-26T10:19:29;17.51;66.31
72380;SHT30;60354;47.798;12.472;2022-10-26T10:22:11;17.79;66.69
72380;SHT30;60354;47.798;12.472;2022-10-26T10:24:41;18.05;65.62
72380;SHT30;60354;47.798;12.472;2022-10-26T10:29:52;18.45;64.22
72380;SHT30;60354;47.798;12.472;2022-10-26T10:32:27;18.61;63.47
72380;SHT30;60354;47.798;12.472;2022-10-26T10:34:58;18.73;63.87
72380;SHT30;60354;47.798;12.472;2022-10-26T10:37:40;18.60;64.49
72380;SHT30;60354;47.798;12.472;2022-10-26T10:40:20;18.42;64.49
72380;SHT30;60354;47.798;12.472;2022-10-26T10:42:46;18.13;63.97
72380;SHT30;60354;47.798;12.472;2022-10-26T10:45:22;18.04;64.55
72380;SHT30;60354;47.798;12.472;2022-10-26T10:47:59;18.05;64.59
72380;SHT30;60354;47.798;12.472;2022-10-26T10:50:25;17.99;63.98
72380;SHT30;60354;47.798;12.472;2022-10-26T10:52:52;18.15;64.52
72380;SHT30;60354;47.798;12.472;2022-10-26T10:55:20;18.29;63.27
72380;SHT30;60354;47.798;12.472;2022-10-26T11:00:18;18.45;63.12
72380;SHT30;60354;47.798;12.472;2022-10-26T11:06:21;18.30;63.48
72380;SHT30;60354;47.798;12.472;2022-10-26T11:11:33;18.49;62.88
72380;SHT30;60354;47.798;12.472;2022-10-26T11:16:38;18.35;62.85
72380;SHT30;60354;47.798;12.472;2022-10-26T11:19:31;18.32;63.98
72380;SHT30;60354;47.798;12.472;2022-10-26T11:22:04;18.22;63.42
72380;SHT30;60354;47.798;12.472;2022-10-26T11:24:41;18.30;63.04
72380;SHT30;60354;47.798;12.472;2022-10-26T11:27:14;18.45;63.31
72380;SHT30;60354;47.798;12.472;2022-10-26T11:30:14;18.86;60.46
72380;SHT30;60354;47.798;12.472;2022-10-26T11:32:43;19.17;59.35
72380;SHT30;60354;47.798;12.472;2022-10-26T11:35:13;19.41;58.75
72380;SHT30;60354;47.798;12.472;2022-10-26T11:40:56;19.46;58.31
72380;SHT30;60354;47.798;12.472;2022-10-26T11:43:47;19.35;59.48
72380;SHT30;60354;47.798;12.472;2022-10-26T11:46:29;19.36;60.41
72380;SHT30;60354;47.798;12.472;2022-10-26T11:55:19;19.76;58.08
72380;SHT30;60354;47.798;12.472;2022-10-26T11:57:54;19.72;57.21
72380;SHT30;60354;47.798;12.472;2022-10-26T12:00:50;19.92;57.85
72380;SHT30;60354;47.798;12.472;2022-10-26T12:03:27;19.79;58.00
72380;SHT30;60354;47.798;12.472;2022-10-26T12:05:59;19.52;58.80
72380;SHT30;60354;47.798;12.472;2022-10-26T12:15:38;18.93;59.45
72380;SHT30;60354;47.798;12.472;2022-10-26T12:18:25;18.87;59.98
72380;SHT30;60354;47.798;12.472;2022-10-26T12:21:27;18.78;63.84
72380;SHT30;60354;47.798;12.472;2022-10-26T12:29:38;18.43;66.74
72380;SHT30;60354;47.798;12.472;2022-10-26T12:35:32;18.35;69.72
72380;SHT30;60354;47.798;12.472;2022-10-26T12:38:53;18.30;71.08
72380;SHT30;60354;47.798;12.472;2022-10-26T12:41:44;18.30;74.39
72380;SHT30;60354;47.798;12.472;2022-10-26T12:53:08;18.45;67.38
72380;SHT30;60354;47.798;12.472;2022-10-26T12:56:14;18.67;67.34
72380;SHT30;60354;47.798;12.472;2022-10-26T12:59:00;18.78;65.95
72380;SHT30;60354;47.798;12.472;2022-10-26T13:08:13;19.04;63.44
72380;SHT30;60354;47.798;12.472;2022-10-26T13:11:05;19.07;64.94
72380;SHT30;60354;47.798;12.472;2022-10-26T13:14:01;19.03;65.14
72380;SHT30;60354;47.798;12.472;2022-10-26T13:16:31;18.94;65.59
72380;SHT30;60354;47.798;12.472;2022-10-26T13:19:49;18.88;65.74
72380;SHT30;60354;47.798;12.472;2022-10-26T13:29:29;18.78;66.69
72380;SHT30;60354;47.798;12.472;2022-10-26T13:32:22;18.73;67.05
72380;SHT30;60354;47.798;12.472;2022-10-26T13:35:02;18.49;69.21
72380;SHT30;60354;47.798;12.472;2022-10-26T13:38:01;18.47;68.76
72380;SHT30;60354;47.798;12.472;2022-10-26T13:40:46;18.19;69.56
72380;SHT30;60354;47.798;12.472;2022-10-26T13:43:42;18.28;67.93
72380;SHT30;60354;47.798;12.472;2022-10-26T13:46:44;18.32;67.96
72380;SHT30;60354;47.798;12.472;2022-10-26T13:49:22;18.32;68.49
72380;SHT30;60354;47.798;12.472;2022-10-26T13:54:48;18.29;68.88
72380;SHT30;60354;47.798;12.472;2022-10-26T14:04:15;18.06;73.60
72380;SHT30;60354;47.798;12.472;2022-10-26T14:07:28;17.99;73.10
72380;SHT30;60354;47.798;12.472;2022-10-26T14:10:21;18.02;71.17
72380;SHT30;60354;47.798;12.472;2022-10-26T14:13:33;17.99;71.78
72380;SHT30;60354;47.798;12.472;2022-10-26T14:15:59;17.94;72.28
72380;SHT30;60354;47.798;12.472;2022-10-26T14:18:29;17.88;72.44
72380;SHT30;60354;47.798;12.472;2022-10-26T14:21:06;17.82;73.22
72380;SHT30;60354;47.798;12.472;2022-10-26T14:26:21;17.74;72.40
72380;SHT30;60354;47.798;12.472;2022-10-26T14:28:59;17.67;72.93
72380;SHT30;60354;47.798;12.472;2022-10-26T14:31:30;17.63;73.15
72380;SHT30;60354;47.798;12.472;2022-10-26T14:34:00;17.53;74.98
72380;SHT30;60354;47.798;12.472;2022-10-26T14:39:50;17.38;75.79
72380;SHT30;60354;47.798;12.472;2022-10-26T14:44:53;17.19;76.33
72380;SHT30;60354;47.798;12.472;2022-10-26T14:47:26;17.15;76.03
72380;SHT30;60354;47.798;12.472;2022-10-26T14:49:52;17.07;76.04
72380;SHT30;60354;47.798;12.472;2022-10-26T14:52:22;17.00;75.30
72380;SHT30;60354;47.798;12.472;2022-10-26T14:55:14;16.79;75.90
72380;SHT30;60354;47.798;12.472;2022-10-26T14:57:42;16.69;76.33
72380;SHT30;60354;47.798;12.472;2022-10-26T15:00:23;16.72;76.77
72380;SHT30;60354;47.798;12.472;2022-10-26T15:02:51;16.66;76.39
72380;SHT30;60354;47.798;12.472;2022-10-26T15:07:52;16.59;78.11
72380;SHT30;60354;47.798;12.472;2022-10-26T15:15:42;16.55;76.54
72380;SHT30;60354;47.798;12.472;2022-10-26T15:18:25;16.54;76.69
72380;SHT30;60354;47.798;12.472;2022-10-26T15:20:52;16.48;77.30
72380;SHT30;60354;47.798;12.472;2022-10-26T15:23:22;16.48;77.63
72380;SHT30;60354;47.798;12.472;2022-10-26T15:25:57;16.47;77.76
72380;SHT30;60354;47.798;12.472;2022-10-26T15:33:42;16.38;77.53
72380;SHT30;60354;47.798;12.472;2022-10-26T15:36:15;16.35;78.09
72380;SHT30;60354;47.798;12.472;2022-10-26T15:38:41;16.31;78.28
72380;SHT30;60354;47.798;12.472;2022-10-26T15:41:20;16.25;78.21
72380;SHT30;60354;47.798;12.472;2022-10-26T15:43:51;16.11;78.30
72380;SHT30;60354;47.798;12.472;2022-10-26T15:46:18;16.08;77.98
72380;SHT30;60354;47.798;12.472;2022-10-26T15:48:55;16.04;78.30
72380;SHT30;60354;47.798;12.472;2022-10-26T15:51:21;16.03;78.54
72380;SHT30;60354;47.798;12.472;2022-10-26T15:54:01;16.00;78.55
72380;SHT30;60354;47.798;12.472;2022-10-26T15:56:29;15.98;78.85
72380;SHT30;60354;47.798;12.472;2022-10-26T15:59:10;15.90;79.21
72380;SHT30;60354;47.798;12.472;2022-10-26T16:01:58;15.89;78.99
72380;SHT30;60354;47.798;12.472;2022-10-26T16:05:04;15.85;79.36
72380;SHT30;60354;47.798;12.472;2022-10-26T16:07:49;15.80;79.33
72380;SHT30;60354;47.798;12.472;2022-10-26T16:10:22;15.76;79.61
72380;SHT30;60354;47.798;12.472;2022-10-26T16:12:48;15.70;79.95
72380;SHT30;60354;47.798;12.472;2022-10-26T16:15:37;15.65;79.88
72380;SHT30;60354;47.798;12.472;2022-10-26T16:18:10;15.63;80.09
72380;SHT30;60354;47.798;12.472;2022-10-26T16:20:45;15.63;80.14
72380;SHT30;60354;47.798;12.472;2022-10-26T16:23:34;15.59;80.55
72380;SHT30;60354;47.798;12.472;2022-10-26T16:26:02;15.60;79.97
72380;SHT30;60354;47.798;12.472;2022-10-26T16:28:31;15.59;79.86
72380;SHT30;60354;47.798;12.472;2022-10-26T16:31:01;15.59;79.82
72380;SHT30;60354;47.798;12.472;2022-10-26T16:33:27;15.63;79.25
72380;SHT30;60354;47.798;12.472;2022-10-26T16:36:00;15.59;79.24
72380;SHT30;60354;47.798;12.472;2022-10-26T16:38:29;15.57;78.91
72380;SHT30;60354;47.798;12.472;2022-10-26T16:41:01;15.59;78.84
72380;SHT30;60354;47.798;12.472;2022-10-26T16:43:30;15.59;78.63
72380;SHT30;60354;47.798;12.472;2022-10-26T16:45:59;15.55;78.85
72380;SHT30;60354;47.798;12.472;2022-10-26T16:48:24;15.59;78.97
72380;SHT30;60354;47.798;12.472;2022-10-26T16:50:56;15.59;79.18
72380;SHT30;60354;47.798;12.472;2022-10-26T16:53:42;15.52;79.62
72380;SHT30;60354;47.798;12.472;2022-10-26T16:56:19;15.46;79.95
72380;SHT30;60354;47.798;12.472;2022-10-26T16:58:45;15.42;80.44
72380;SHT30;60354;47.798;12.472;2022-10-26T17:01:18;15.32;80.80
72380;SHT30;60354;47.798;12.472;2022-10-26T17:03:46;15.28;80.76
72380;SHT30;60354;47.798;12.472;2022-10-26T17:06:12;15.31;80.48
72380;SHT30;60354;47.798;12.472;2022-10-26T17:08:42;15.32;80.51
72380;SHT30;60354;47.798;12.472;2022-10-26T17:11:10;15.35;80.29
72380;SHT30;60354;47.798;12.472;2022-10-26T17:13:36;15.31;80.44
72380;SHT30;60354;47.798;12.472;2022-10-26T17:16:05;15.31;80.69
72380;SHT30;60354;47.798;12.472;2022-10-26T17:18:31;15.24;81.03
72380;SHT30;60354;47.798;12.472;2022-10-26T17:20:57;15.25;81.23
72380;SHT30;60354;47.798;12.472;2022-10-26T17:23:23;15.22;81.28
72380;SHT30;60354;47.798;12.472;2022-10-26T17:25:48;15.18;81.44
72380;SHT30;60354;47.798;12.472;2022-10-26T17:28:14;15.14;81.67
72380;SHT30;60354;47.798;12.472;2022-10-26T17:30:40;15.07;81.99
72380;SHT30;60354;47.798;12.472;2022-10-26T17:33:05;15.02;82.09
72380;SHT30;60354;47.798;12.472;2022-10-26T17:35:32;15.07;81.95
72380;SHT30;60354;47.798;12.472;2022-10-26T17:37:59;15.07;81.86
72380;SHT30;60354;47.798;12.472;2022-10-26T17:40:25;15.02;82.31
72380;SHT30;60354;47.798;12.472;2022-10-26T17:42:50;15.02;82.20
72380;SHT30;60354;47.798;12.472;2022-10-26T17:45:16;15.04;82.08
72380;SHT30;60354;47.798;12.472;2022-10-26T17:47:41;15.02;82.32
72380;SHT30;60354;47.798;12.472;2022-10-26T17:50:07;14.97;82.42
72380;SHT30;60354;47.798;12.472;2022-10-26T17:52:34;15.01;82.07
72380;SHT30;60354;47.798;12.472;2022-10-26T17:54:59;15.05;81.88
72380;SHT30;60354;47.798;12.472;2022-10-26T17:57:25;15.02;81.98
72380;SHT30;60354;47.798;12.472;2022-10-26T17:59:50;15.04;81.96
72380;SHT30;60354;47.798;12.472;2022-10-26T18:02:16;15.01;81.79
72380;SHT30;60354;47.798;12.472;2022-10-26T18:04:41;15.02;81.32
72380;SHT30;60354;47.798;12.472;2022-10-26T18:07:07;15.01;81.23
72380;SHT30;60354;47.798;12.472;2022-10-26T18:09:32;15.04;81.50
72380;SHT30;60354;47.798;12.472;2022-10-26T18:11:58;15.02;81.52
72380;SHT30;60354;47.798;12.472;2022-10-26T18:14:23;15.02;81.24
72380;SHT30;60354;47.798;12.472;2022-10-26T18:16:49;15.04;81.50
72380;SHT30;60354;47.798;12.472;2022-10-26T18:19:15;15.09;81.22
72380;SHT30;60354;47.798;12.472;2022-10-26T18:21:40;15.05;81.05
72380;SHT30;60354;47.798;12.472;2022-10-26T18:24:06;15.07;81.34
72380;SHT30;60354;47.798;12.472;2022-10-26T18:26:33;15.07;81.24
72380;SHT30;60354;47.798;12.472;2022-10-26T18:29:00;15.04;81.18
72380;SHT30;60354;47.798;12.472;2022-10-26T18:31:28;15.04;81.05
72380;SHT30;60354;47.798;12.472;2022-10-26T18:33:57;15.04;80.77